TKPKTAPA

Guest
Details From TKPK - St. Kitts/Bradshaw Intl
To TAPA - Antigua - V C Bird Intl
Flight Number -
Tags generated
Created
Modified
Stats Distance 55 nm / 101 km
Max Altitude 100 ft / 30 m
Waypoints 3
Social Downloads 2
Likes 0
Share VATSIM

Download

Looking for another format? Having issues loading an existing format? Contact us
Advertisement - Login to hide

Notes

Basic altitude profile: - Ascent Rate: 2500ft/min - Ascent Speed: 250kts - Cruise Altitude: 35000ft - Cruise Speed: 420kts - Descent Rate: 1500ft/min - Descent Speed: 250kts Options: - Use NATs: yes - Use PACOTS: yes - Use low airways: yes - Use high airways: yes

Route

TKPK ANU TAPA

ID Type Via Altitude Latitude Longitude Leg Dist Tot Dist Heading (true) Name
O TKPK APT - 0 ft / 0 m 17.31119˚ -62.71867˚ - 0 nm - St. Kitts/Bradshaw Intl
ANU NDB - 100 ft / 30 m 17.12588˚ -61.80017˚ 53 nm 53 nm 102° / 102° V C BIRD NDB
O TAPA APT - 0 ft / 0 m 17.13674˚ -61.79266˚ 0 nm 54 nm 33° / 33° Antigua - V C Bird Intl

Altitude Profile

Advertisement - Login to hide

TKPK

Details ICAO TKPK (SKB)
Name St. Kitts/Bradshaw Intl
Region Saint Kitts and Nevis
Timezone America/St_Kitts (UTC-4.0)
Stats Elevation 170 ft / 52 m (AMSL)
Location 17.311194° -62.718666°
Runways 1
Magnetic Variation 14.451° W

METAR

Not found

TAF

TAF TKPK 180545Z 1806/1906 05009KT P6SM VCSH SCT018 SCT022 FM181430 06017KT P6SM SCT020 SCT040 FM182300 05010KT P6SM FEW016 SCT018 SCT060 AMD NOT SKED TIL 181100

Decode

Departure Runways

ID Width Length Bearing (true) Bearing (mag) Surface Threshold Offset Overrun Length
07 148 ft / 45 m 7,620 ft / 2,323 m 56.95° 71.40° Asphalt 200 ft / 61 m 0 ft / 0 m
25 148 ft / 45 m 7,620 ft / 2,323 m 236.95° 251.40° Asphalt 0 ft / 0 m 0 ft / 0 m

TAPA

Details ICAO TAPA (ANU)
Name Antigua - V C Bird Intl
Region Antigua and Barbuda
Timezone America/Antigua (UTC-4.0)
Stats Elevation 62 ft / 19 m (AMSL)
Location 17.136737° -61.792662°
Runways 1
Magnetic Variation 14.767° W

METAR

TAPA 180900Z 07011KT 9999 SCT018 25/22 Q1016 NOSIG

Decode

TAF

TAF TAF TAPA 180500Z 1800/1906 06010KT 9999 SCT020

Decode

Destination Runways

ID Width Length Bearing (true) Bearing (mag) Surface Threshold Offset Overrun Length
07 148 ft / 45 m 9,022 ft / 2,750 m 58.28° 73.05° Asphalt 656 ft / 200 m 0 ft / 0 m
25 148 ft / 45 m 9,022 ft / 2,750 m 238.29° 253.06° Asphalt 0 ft / 0 m 0 ft / 0 m

Popular Alternatives